createdAt,value
2023-05-14T00:00:01.875Z,11.18
2023-05-14T00:02:28.650Z,11.98
2023-05-14T00:04:55.357Z,11.40
2023-05-14T00:07:21.928Z,12.15
2023-05-14T00:09:48.528Z,11.38
2023-05-14T00:12:15.273Z,12.30
2023-05-14T00:14:41.867Z,10.88
2023-05-14T00:17:08.915Z,12.50
2023-05-14T00:19:35.569Z,12.10
2023-05-14T00:22:02.220Z,12.77
2023-05-14T00:24:28.915Z,10.88
2023-05-14T00:26:55.560Z,12.15
2023-05-14T00:29:22.176Z,11.50
2023-05-14T00:31:48.824Z,12.20
2023-05-14T00:34:15.607Z,11.95
2023-05-14T00:36:42.377Z,11.93
2023-05-14T00:39:09.099Z,12.88
2023-05-14T00:41:35.782Z,12.88
2023-05-14T00:44:02.640Z,12.55
2023-05-14T00:46:29.413Z,12.48
2023-05-14T00:48:56.204Z,12.13
2023-05-14T00:51:22.834Z,11.82
2023-05-14T00:53:50.532Z,12.52
2023-05-14T00:56:17.391Z,11.50
2023-05-14T00:58:44.174Z,12.43
2023-05-14T01:01:12.168Z,10.98
2023-05-14T01:03:38.990Z,13.32
2023-05-14T01:06:11.731Z,13.10
2023-05-14T01:09:09.368Z,13.20
2023-05-14T01:11:41.116Z,13.18
2023-05-14T01:14:41.906Z,13.15
2023-05-14T01:17:11.414Z,13.73
2023-05-14T01:19:44.507Z,13.45
2023-05-14T01:22:11.834Z,13.48
2023-05-14T01:24:38.604Z,12.93
2023-05-14T01:27:46.199Z,13.45
2023-05-14T01:30:19.950Z,13.23
2023-05-14T01:32:48.786Z,13.52
2023-05-14T01:35:18.134Z,13.13
2023-05-14T01:37:45.750Z,14.05
2023-05-14T01:40:14.076Z,14.07
2023-05-14T01:42:41.280Z,13.38
2023-05-14T01:45:08.536Z,14.13
2023-05-14T01:47:35.519Z,13.15
2023-05-14T01:50:02.166Z,13.73
2023-05-14T01:52:28.784Z,13.15
2023-05-14T01:54:55.421Z,13.30
2023-05-14T01:57:22.090Z,13.90
2023-05-14T01:59:48.725Z,13.10
2023-05-14T02:02:15.385Z,14.30
2023-05-14T02:04:42.004Z,13.85
2023-05-14T02:07:08.677Z,14.40
2023-05-14T02:09:35.361Z,13.13
2023-05-14T02:12:02.034Z,13.82
2023-05-14T02:14:28.703Z,14.35
2023-05-14T02:16:55.476Z,14.43
2023-05-14T02:19:22.090Z,14.52
2023-05-14T02:21:50.265Z,13.75
2023-05-14T02:24:17.040Z,13.70
2023-05-14T02:26:43.661Z,14.45
2023-05-14T02:29:10.467Z,14.20
2023-05-14T02:31:37.148Z,14.85
2023-05-14T02:34:04.865Z,14.20
2023-05-14T02:36:31.878Z,15.98
2023-05-14T02:38:59.917Z,15.05
2023-05-14T02:41:26.840Z,14.15
2023-05-14T02:43:54.101Z,14.48
2023-05-14T02:46:21.324Z,14.10
2023-05-14T02:48:48.047Z,14.50
2023-05-14T02:51:14.680Z,14.30
2023-05-14T02:53:41.309Z,14.10
2023-05-14T02:56:08.170Z,14.38
2023-05-14T02:58:34.913Z,14.55
2023-05-14T03:01:01.880Z,14.80
2023-05-14T03:03:30.117Z,13.18
2023-05-14T03:05:57.294Z,14.35
2023-05-14T03:08:23.974Z,13.88
2023-05-14T03:10:50.798Z,15.05
2023-05-14T03:13:19.948Z,15.10
2023-05-14T03:15:47.484Z,15.27
2023-05-14T03:18:14.399Z,15.45
2023-05-14T03:20:41.596Z,15.20
2023-05-14T03:23:08.336Z,16.08
2023-05-14T03:25:35.001Z,15.60
2023-05-14T03:28:01.676Z,16.70
2023-05-14T03:30:28.442Z,16.90
2023-05-14T03:32:55.226Z,14.90
2023-05-14T03:35:21.919Z,15.75
2023-05-14T03:37:48.511Z,14.80
2023-05-14T03:40:15.270Z,15.38
2023-05-14T03:42:43.500Z,15.20
2023-05-14T03:45:10.752Z,16.63
2023-05-14T03:47:37.574Z,16.95
2023-05-14T03:50:04.433Z,15.77
2023-05-14T03:52:31.102Z,14.32
2023-05-14T03:54:57.695Z,15.77
2023-05-14T03:57:24.330Z,16.33
2023-05-14T03:59:50.969Z,15.73
2023-05-14T04:02:19.348Z,15.45
2023-05-14T04:04:47.091Z,16.98
2023-05-14T04:07:18.540Z,16.05
2023-05-14T04:09:45.282Z,15.15
2023-05-14T04:12:11.935Z,17.58
2023-05-14T04:14:38.805Z,16.63
2023-05-14T04:17:05.552Z,15.60
2023-05-14T04:19:32.182Z,16.77
2023-05-14T04:21:58.845Z,16.63
2023-05-14T04:24:25.516Z,18.73
2023-05-14T04:26:52.201Z,16.73
2023-05-14T04:29:18.763Z,15.63
2023-05-14T04:31:45.565Z,17.80
2023-05-14T04:34:12.316Z,16.73
2023-05-14T04:36:38.938Z,16.33
2023-05-14T04:39:06.026Z,15.90
2023-05-14T04:41:32.708Z,18.38
2023-05-14T04:44:01.832Z,17.48
2023-05-14T04:46:28.700Z,16.30
2023-05-14T04:48:56.447Z,17.27
2023-05-14T04:51:23.663Z,17.30
2023-05-14T04:53:50.425Z,16.80
2023-05-14T04:56:17.044Z,16.48
2023-05-14T04:58:43.681Z,16.48
2023-05-14T05:01:10.599Z,15.55
2023-05-14T05:03:37.306Z,15.90
2023-05-14T05:06:04.191Z,17.30
2023-05-14T05:08:30.866Z,16.95
2023-05-14T05:10:57.534Z,15.68
2023-05-14T05:13:24.181Z,17.33
2023-05-14T05:15:51.186Z,16.27
2023-05-14T05:18:17.898Z,17.13
2023-05-14T05:20:44.586Z,15.27
2023-05-14T05:23:11.292Z,16.45
2023-05-14T05:25:37.998Z,16.48
2023-05-14T05:28:04.736Z,14.98
2023-05-14T05:30:31.426Z,16.00
2023-05-14T05:32:58.154Z,15.98
2023-05-14T05:35:24.970Z,14.77
2023-05-14T05:37:51.574Z,16.45
2023-05-14T05:40:18.371Z,15.30
2023-05-14T05:42:45.046Z,15.63
2023-05-14T05:45:11.867Z,14.13
2023-05-14T05:47:38.583Z,14.98
2023-05-14T05:50:05.973Z,15.32
2023-05-14T05:52:32.649Z,14.88
2023-05-14T05:54:59.434Z,16.30
2023-05-14T05:57:27.230Z,15.50
2023-05-14T05:59:53.950Z,13.65
2023-05-14T06:02:20.756Z,15.60
2023-05-14T06:04:47.501Z,15.35
2023-05-14T06:07:14.235Z,15.38
2023-05-14T06:09:40.853Z,13.85
2023-05-14T06:12:07.917Z,14.68
2023-05-14T06:14:34.523Z,14.60
2023-05-14T06:17:01.223Z,14.23
2023-05-14T06:19:27.910Z,14.25
2023-05-14T06:21:54.513Z,12.77
2023-05-14T06:24:21.256Z,14.02
2023-05-14T06:26:49.372Z,13.55
2023-05-14T06:29:16.119Z,13.07
2023-05-14T06:31:42.836Z,13.27
2023-05-14T06:34:09.587Z,14.10
2023-05-14T06:36:36.204Z,12.35
2023-05-14T06:39:03.446Z,14.13
2023-05-14T06:41:30.304Z,14.00
2023-05-14T06:43:56.985Z,14.43
2023-05-14T06:46:23.582Z,13.98
2023-05-14T06:48:50.616Z,13.45
2023-05-14T06:51:17.254Z,12.68
2023-05-14T06:53:43.864Z,12.98
2023-05-14T06:56:10.978Z,13.02
2023-05-14T06:58:37.675Z,12.40
2023-05-14T07:01:04.511Z,12.90
2023-05-14T07:03:31.168Z,13.00
2023-05-14T07:05:57.953Z,12.27
2023-05-14T07:08:24.729Z,11.57
2023-05-14T07:10:51.526Z,13.02
2023-05-14T07:13:18.170Z,11.13
2023-05-14T07:15:44.969Z,10.77
2023-05-14T07:18:11.822Z,11.38
2023-05-14T07:20:38.523Z,12.25
2023-05-14T07:23:05.130Z,11.18
2023-05-14T07:25:32.694Z,11.95
2023-05-14T07:27:59.338Z,10.60
2023-05-14T07:30:26.229Z,10.38
2023-05-14T07:32:53.226Z,11.18
2023-05-14T07:35:20.098Z,11.30
2023-05-14T07:37:46.904Z,10.82
2023-05-14T07:40:13.670Z,9.73
2023-05-14T07:42:40.360Z,9.90
2023-05-14T07:45:07.577Z,10.05
2023-05-14T07:47:34.408Z,9.48
2023-05-14T07:50:01.106Z,9.27
2023-05-14T07:52:27.706Z,9.15
2023-05-14T07:54:55.000Z,9.10
2023-05-14T07:57:22.092Z,10.00
2023-05-14T07:59:48.931Z,8.10
2023-05-14T08:02:16.764Z,9.18
2023-05-14T08:04:43.888Z,8.30
2023-05-14T08:07:10.685Z,9.07
2023-05-14T08:09:37.403Z,8.35
2023-05-14T08:12:04.284Z,8.70
2023-05-14T08:14:30.915Z,8.18
2023-05-14T08:16:57.564Z,7.40
2023-05-14T08:19:24.559Z,7.30
2023-05-14T08:21:51.494Z,7.15
2023-05-14T08:24:18.881Z,7.13
2023-05-14T08:26:45.508Z,7.38
2023-05-14T08:29:14.004Z,7.60
2023-05-14T08:31:42.272Z,7.00
2023-05-14T08:34:08.921Z,7.80
2023-05-14T08:36:35.621Z,7.28
2023-05-14T08:39:02.370Z,7.13
2023-05-14T08:41:29.160Z,6.10
2023-05-14T08:44:13.365Z,7.55
2023-05-14T08:46:40.384Z,7.47
2023-05-14T08:49:29.917Z,8.00
2023-05-14T08:51:56.620Z,7.13
2023-05-14T08:54:24.685Z,7.40
2023-05-14T08:56:52.024Z,7.28
2023-05-14T08:59:19.301Z,6.10
2023-05-14T09:01:51.949Z,6.70
2023-05-14T09:04:23.550Z,7.03
2023-05-14T09:06:52.025Z,7.50
2023-05-14T09:09:19.259Z,7.70
2023-05-14T09:11:46.936Z,7.40
2023-05-14T09:14:13.539Z,8.30
2023-05-14T09:16:42.741Z,7.13
2023-05-14T09:19:09.593Z,6.70
2023-05-14T09:21:36.794Z,7.50
2023-05-14T09:24:03.935Z,7.22
2023-05-14T09:26:32.807Z,6.63
2023-05-14T09:29:03.928Z,8.13
2023-05-14T09:31:31.951Z,7.70
2023-05-14T09:33:59.380Z,7.68
2023-05-14T09:36:27.232Z,8.30
2023-05-14T09:38:56.805Z,8.32
2023-05-14T09:41:23.551Z,8.23
2023-05-14T09:43:53.001Z,7.15
2023-05-14T09:46:19.619Z,7.13
2023-05-14T09:48:46.570Z,8.00
2023-05-14T09:51:13.712Z,6.93
2023-05-14T09:53:41.316Z,7.05
2023-05-14T09:56:07.975Z,6.25
2023-05-14T09:58:34.646Z,7.03
2023-05-14T10:01:01.930Z,6.75
2023-05-14T10:03:30.426Z,7.63
2023-05-14T10:06:02.328Z,6.65
2023-05-14T10:08:35.215Z,7.03
2023-05-14T10:11:04.052Z,6.05
2023-05-14T10:13:33.862Z,5.40
2023-05-14T10:16:22.792Z,6.18
2023-05-14T10:18:54.161Z,7.30
2023-05-14T10:21:22.692Z,6.25
2023-05-14T10:23:50.425Z,6.90
2023-05-14T10:26:17.109Z,6.20
2023-05-14T10:28:44.093Z,7.55
2023-05-14T10:31:10.842Z,6.55
2023-05-14T10:33:49.286Z,6.68
2023-05-14T10:36:19.275Z,6.00
2023-05-14T10:38:46.917Z,5.53
2023-05-14T10:41:21.630Z,5.80
2023-05-14T10:43:48.433Z,6.13
2023-05-14T10:46:15.137Z,6.15
2023-05-14T10:48:43.406Z,6.50
2023-05-14T10:51:11.228Z,6.00
2023-05-14T10:53:42.720Z,6.85
2023-05-14T10:56:11.043Z,7.13
2023-05-14T10:58:46.756Z,6.40
2023-05-14T11:01:13.820Z,6.00
2023-05-14T11:03:45.553Z,5.57
2023-05-14T11:06:13.918Z,4.80
2023-05-14T11:08:41.634Z,3.95
2023-05-14T11:11:09.373Z,4.57
2023-05-14T11:13:36.039Z,3.70
2023-05-14T11:16:15.074Z,4.25
2023-05-14T11:18:48.221Z,4.25
2023-05-14T11:21:17.332Z,5.32
2023-05-14T11:23:46.559Z,5.05
2023-05-14T11:26:13.174Z,5.28
2023-05-14T11:28:40.095Z,4.30
2023-05-14T11:31:06.745Z,4.07
2023-05-14T11:33:33.376Z,4.50
2023-05-14T11:35:59.955Z,4.28
2023-05-14T11:38:26.598Z,3.92
2023-05-14T11:40:57.620Z,4.28
2023-05-14T11:43:26.192Z,4.50
2023-05-14T11:45:53.553Z,4.13
2023-05-14T11:48:21.038Z,4.72
2023-05-14T11:50:49.679Z,4.38
2023-05-14T11:53:19.274Z,3.88
2023-05-14T11:55:47.497Z,3.92
2023-05-14T11:58:14.219Z,3.33
2023-05-14T12:00:41.526Z,3.40
2023-05-14T12:03:10.162Z,3.47
2023-05-14T12:05:39.149Z,3.38
2023-05-14T12:08:22.523Z,3.60
2023-05-14T12:10:49.345Z,3.20
2023-05-14T12:13:17.402Z,3.25
2023-05-14T12:15:48.459Z,3.35
2023-05-14T12:18:24.190Z,3.38
2023-05-14T12:20:52.154Z,3.38
2023-05-14T12:23:26.187Z,3.30
2023-05-14T12:25:52.894Z,4.03
2023-05-14T12:28:19.832Z,3.55
2023-05-14T12:30:47.400Z,3.13
2023-05-14T12:33:18.018Z,3.13
2023-05-14T12:35:44.929Z,3.15
2023-05-14T12:38:11.712Z,2.72
2023-05-14T12:40:38.359Z,3.15
2023-05-14T12:43:05.000Z,2.75
2023-05-14T12:45:31.707Z,3.03
2023-05-14T12:47:58.481Z,3.20
2023-05-14T12:50:25.425Z,3.20
2023-05-14T12:52:52.279Z,2.95
2023-05-14T12:55:18.867Z,2.90
2023-05-14T12:57:45.637Z,3.40
2023-05-14T13:00:14.187Z,3.08
2023-05-14T13:02:43.021Z,3.20
2023-05-14T13:05:11.477Z,2.85
2023-05-14T13:07:38.607Z,3.08
2023-05-14T13:10:05.942Z,3.95
2023-05-14T13:12:32.904Z,3.05
2023-05-14T13:14:59.700Z,3.25
2023-05-14T13:17:26.444Z,2.80
2023-05-14T13:19:53.156Z,3.22
2023-05-14T13:22:19.772Z,2.90
2023-05-14T13:24:46.636Z,2.42
2023-05-14T13:27:13.254Z,2.80
2023-05-14T13:29:39.977Z,2.60
2023-05-14T13:32:06.900Z,2.78
2023-05-14T13:34:33.902Z,3.25
2023-05-14T13:37:01.087Z,2.70
2023-05-14T13:39:27.751Z,2.95
2023-05-14T13:41:56.691Z,2.50
2023-05-14T13:44:23.453Z,2.75
2023-05-14T13:46:50.257Z,2.95
2023-05-14T13:49:16.900Z,2.70
2023-05-14T13:51:43.967Z,2.83
2023-05-14T13:54:10.792Z,2.50
2023-05-14T13:56:37.457Z,2.92
2023-05-14T13:59:04.246Z,2.53
2023-05-14T14:01:31.554Z,2.60
2023-05-14T14:03:58.373Z,2.70
2023-05-14T14:06:27.365Z,2.42
2023-05-14T14:08:54.092Z,2.90
2023-05-14T14:11:20.977Z,2.50
2023-05-14T14:13:47.606Z,2.95
2023-05-14T14:16:14.192Z,2.50
2023-05-14T14:18:41.337Z,2.60
2023-05-14T14:21:07.968Z,2.20
2023-05-14T14:23:34.596Z,2.40
2023-05-14T14:26:01.225Z,2.53
2023-05-14T14:28:27.842Z,2.72
2023-05-14T14:30:54.482Z,2.63
2023-05-14T14:33:21.161Z,2.53
2023-05-14T14:35:47.911Z,2.38
2023-05-14T14:38:14.601Z,2.40
2023-05-14T14:40:41.279Z,2.40
2023-05-14T14:43:07.866Z,2.58
2023-05-14T14:45:34.636Z,2.47
2023-05-14T14:48:26.309Z,2.45
2023-05-14T14:50:53.633Z,2.53
2023-05-14T14:53:21.340Z,3.20
2023-05-14T14:55:48.836Z,2.60
2023-05-14T14:58:15.626Z,2.50
2023-05-14T15:00:42.311Z,2.70
2023-05-14T15:03:10.236Z,2.75
2023-05-14T15:05:37.039Z,2.92
2023-05-14T15:08:04.381Z,3.03
2023-05-14T15:10:31.782Z,3.15
2023-05-14T15:12:59.258Z,2.80
2023-05-14T15:15:26.654Z,2.85
2023-05-14T15:17:53.368Z,2.70
2023-05-14T15:20:20.186Z,3.60
2023-05-14T15:22:46.872Z,3.00
2023-05-14T15:25:13.492Z,2.85
2023-05-14T15:27:40.315Z,2.47
2023-05-14T15:30:07.623Z,2.85
2023-05-14T15:32:34.352Z,2.58
2023-05-14T15:35:01.364Z,2.65
2023-05-14T15:37:28.072Z,2.78
2023-05-14T15:39:54.667Z,3.70
2023-05-14T15:42:21.360Z,2.88
2023-05-14T15:44:48.039Z,3.05
2023-05-14T15:47:14.738Z,3.20
2023-05-14T15:49:41.553Z,2.85
2023-05-14T15:52:08.233Z,2.97
2023-05-14T15:54:34.828Z,3.30
2023-05-14T15:57:01.536Z,4.22
2023-05-14T15:59:28.213Z,4.30
2023-05-14T16:01:54.882Z,4.05
2023-05-14T16:04:21.584Z,4.50
2023-05-14T16:06:48.242Z,3.60
2023-05-14T16:09:14.885Z,3.20
2023-05-14T16:11:41.501Z,3.30
2023-05-14T16:14:08.129Z,3.00
2023-05-14T16:16:35.207Z,3.25
2023-05-14T16:19:01.917Z,2.70
2023-05-14T16:21:28.556Z,2.97
2023-05-14T16:23:55.297Z,2.97
2023-05-14T16:26:22.337Z,3.10
2023-05-14T16:28:48.991Z,2.90
2023-05-14T16:31:15.855Z,3.78
2023-05-14T16:33:42.692Z,2.85
2023-05-14T16:36:09.327Z,2.85
2023-05-14T16:38:41.471Z,3.25
2023-05-14T16:41:14.900Z,3.00
2023-05-14T16:43:41.671Z,2.80
2023-05-14T16:46:08.435Z,2.70
2023-05-14T16:48:35.078Z,3.08
2023-05-14T16:51:01.869Z,2.72
2023-05-14T16:53:28.517Z,3.60
2023-05-14T16:55:55.164Z,3.15
2023-05-14T16:58:21.749Z,3.22
2023-05-14T17:00:48.514Z,2.80
2023-05-14T17:03:15.193Z,2.90
2023-05-14T17:05:42.294Z,3.95
2023-05-14T17:08:09.066Z,2.75
2023-05-14T17:10:35.918Z,3.10
2023-05-14T17:13:02.947Z,2.85
2023-05-14T17:15:29.762Z,2.80
2023-05-14T17:17:56.472Z,2.90
2023-05-14T17:20:23.327Z,3.00
2023-05-14T17:22:49.999Z,3.10
2023-05-14T17:25:16.824Z,3.17
2023-05-14T17:27:43.577Z,2.60
2023-05-14T17:30:10.613Z,3.63
2023-05-14T17:32:37.365Z,2.85
2023-05-14T17:35:05.261Z,3.03
2023-05-14T17:37:32.072Z,3.15
2023-05-14T17:39:58.712Z,3.13
2023-05-14T17:42:25.526Z,3.63
2023-05-14T17:44:52.135Z,3.42
2023-05-14T17:47:20.545Z,3.67
2023-05-14T17:49:51.180Z,3.80
2023-05-14T17:52:17.818Z,3.78
2023-05-14T17:54:44.413Z,4.25
2023-05-14T17:57:11.071Z,3.67
2023-05-14T17:59:37.687Z,5.68
2023-05-14T18:02:05.680Z,7.85
2023-05-14T18:04:32.393Z,10.27
2023-05-14T18:07:01.026Z,11.00
2023-05-14T18:09:27.655Z,13.15
2023-05-14T18:11:56.810Z,13.35
2023-05-14T18:14:23.788Z,14.82
2023-05-14T18:16:51.285Z,13.95
2023-05-14T18:19:18.342Z,15.63
2023-05-14T18:21:48.088Z,14.60
2023-05-14T18:24:14.753Z,15.90
2023-05-14T18:26:41.378Z,15.55
2023-05-14T18:29:08.304Z,17.60
2023-05-14T18:31:35.047Z,17.88
2023-05-14T18:34:01.982Z,16.42
2023-05-14T18:36:28.699Z,18.05
2023-05-14T18:38:55.327Z,18.30
2023-05-14T18:41:21.954Z,19.50
2023-05-14T18:43:48.525Z,17.30
2023-05-14T18:46:15.325Z,17.92
2023-05-14T18:48:41.934Z,17.15
2023-05-14T18:51:08.718Z,18.00
2023-05-14T18:53:35.352Z,18.30
2023-05-14T18:56:01.984Z,18.98
2023-05-14T18:58:28.600Z,20.17
2023-05-14T19:00:57.834Z,19.02
2023-05-14T19:03:25.074Z,20.42
2023-05-14T19:05:53.171Z,19.85
2023-05-14T19:08:19.771Z,19.10
2023-05-14T19:10:46.751Z,18.60
2023-05-14T19:13:13.486Z,18.77
2023-05-14T19:15:40.206Z,20.20
2023-05-14T19:18:07.079Z,19.08
2023-05-14T19:20:33.768Z,20.33
2023-05-14T19:23:00.489Z,22.38
2023-05-14T19:25:27.960Z,20.00
2023-05-14T19:27:55.921Z,20.95
2023-05-14T19:30:23.412Z,21.48
2023-05-14T19:32:50.074Z,22.67
2023-05-14T19:35:16.859Z,22.42
2023-05-14T19:37:43.562Z,21.08
2023-05-14T19:40:10.674Z,22.63
2023-05-14T19:42:37.256Z,22.30
2023-05-14T19:45:04.145Z,23.45
2023-05-14T19:47:30.951Z,24.02
2023-05-14T19:49:57.529Z,24.00
2023-05-14T19:52:24.173Z,24.17
2023-05-14T19:54:50.788Z,22.45
2023-05-14T19:57:17.400Z,22.80
2023-05-14T19:59:44.448Z,23.58
2023-05-14T20:02:18.596Z,24.55
2023-05-14T20:04:47.384Z,26.30
2023-05-14T20:07:15.604Z,28.02
2023-05-14T20:09:42.405Z,26.58
2023-05-14T20:12:09.443Z,25.90
2023-05-14T20:14:36.172Z,25.42
2023-05-14T20:17:02.864Z,25.55
2023-05-14T20:19:29.526Z,24.67
2023-05-14T20:21:56.445Z,25.58
2023-05-14T20:24:23.086Z,27.00
2023-05-14T20:26:49.635Z,24.42
2023-05-14T20:29:16.298Z,27.05
2023-05-14T20:31:42.868Z,27.10
2023-05-14T20:34:09.530Z,27.70
2023-05-14T20:36:36.216Z,28.90
2023-05-14T20:39:04.092Z,28.02
2023-05-14T20:41:30.747Z,29.20
2023-05-14T20:43:57.334Z,26.67
2023-05-14T20:46:24.000Z,28.23
2023-05-14T20:48:51.831Z,29.77
2023-05-14T20:51:18.475Z,29.98
2023-05-14T20:53:45.092Z,28.33
2023-05-14T20:56:11.843Z,29.77
2023-05-14T20:58:38.649Z,29.50
2023-05-14T21:01:07.947Z,29.02
2023-05-14T21:03:34.855Z,30.27
2023-05-14T21:06:02.677Z,29.98
2023-05-14T21:08:29.852Z,31.88
2023-05-14T21:10:56.464Z,32.42
2023-05-14T21:13:23.163Z,30.90
2023-05-14T21:15:49.958Z,30.63
2023-05-14T21:18:16.618Z,32.05
2023-05-14T21:20:43.276Z,31.42
2023-05-14T21:23:12.884Z,30.83
2023-05-14T21:25:39.713Z,32.47
2023-05-14T21:28:06.423Z,30.17
2023-05-14T21:30:33.067Z,31.08
2023-05-14T21:32:59.754Z,32.05
2023-05-14T21:35:26.662Z,30.08
2023-05-14T21:37:53.582Z,30.65
2023-05-14T21:40:20.210Z,31.25
2023-05-14T21:42:46.875Z,30.73
2023-05-14T21:45:13.499Z,32.88
2023-05-14T21:47:40.291Z,29.75
2023-05-14T21:50:07.691Z,32.72
2023-05-14T21:52:34.324Z,32.78
2023-05-14T21:55:00.929Z,34.65
2023-05-14T21:57:28.913Z,32.40
2023-05-14T21:59:56.280Z,32.30
2023-05-14T22:02:23.008Z,31.77
2023-05-14T22:04:49.804Z,31.60
2023-05-14T22:07:16.434Z,32.50
2023-05-14T22:09:43.013Z,31.02
2023-05-14T22:12:09.707Z,30.90
2023-05-14T22:14:36.493Z,33.45
2023-05-14T22:17:03.266Z,32.28
2023-05-14T22:19:29.866Z,32.33
2023-05-14T22:21:56.553Z,34.22
2023-05-14T22:24:23.229Z,31.88
2023-05-14T22:26:49.859Z,33.10
2023-05-14T22:29:16.542Z,32.58
2023-05-14T22:31:43.198Z,33.33
2023-05-14T22:34:09.819Z,34.35
2023-05-14T22:36:36.647Z,36.83
2023-05-14T22:39:03.353Z,35.60
2023-05-14T22:41:30.738Z,36.15
2023-05-14T22:43:57.345Z,35.60
2023-05-14T22:46:24.123Z,37.33
2023-05-14T22:48:51.074Z,36.72
2023-05-14T22:51:17.960Z,38.42
2023-05-14T22:53:45.478Z,36.83
2023-05-14T22:56:12.092Z,35.25
2023-05-14T22:58:38.693Z,38.60
2023-05-14T23:01:05.566Z,39.38
2023-05-14T23:03:32.194Z,36.80
2023-05-14T23:05:59.088Z,38.55
2023-05-14T23:08:25.706Z,38.85
2023-05-14T23:10:52.371Z,38.35
2023-05-14T23:13:19.355Z,40.13
2023-05-14T23:15:46.136Z,40.78
2023-05-14T23:18:12.866Z,40.22
2023-05-14T23:20:39.539Z,40.92
2023-05-14T23:23:06.461Z,41.55
2023-05-14T23:25:33.131Z,43.15
2023-05-14T23:27:59.771Z,40.67
2023-05-14T23:30:26.438Z,43.67
2023-05-14T23:32:53.147Z,42.33
2023-05-14T23:35:19.781Z,41.22
2023-05-14T23:37:47.090Z,41.92
2023-05-14T23:40:14.299Z,38.92
2023-05-14T23:42:40.946Z,40.22
2023-05-14T23:45:08.147Z,39.97
2023-05-14T23:47:35.056Z,42.95
2023-05-14T23:50:01.844Z,41.47
2023-05-14T23:52:28.461Z,44.92
2023-05-14T23:54:55.143Z,43.28
2023-05-14T23:57:21.788Z,44.00
2023-05-14T23:59:48.468Z,45.08
